Waco, Texas
Current Conditions -  °F | °C
As of 4:51 PM on Friday 28 Nov 2014 (Local Time) from KACT Reporting Station
Clear Clear  
Wind Chill: 68°   Ceiling: Unl
Heat Index: 68°   Visibility: 10mi
Dew Point: 49°   Wind: 16mph
Humidity: 50%   Direction: 180°S
Pressure: 30.08"   Gusts: NA
Location:  31.57°N, 97.15°W
Report Text: KACT 282251Z 18014KT 10SM CLR 20/09 A3008 RMK AO2 SLP182 T02000094
Loading
Personal Weather Stations






























Interactive Weather Map New forecast layout! Learn more

10-Day Weather Forecast

Advertisements
Track Severe Weather on mobile